sensor_id;sensor_type;location;lat;lon;timestamp;P1;durP1;ratioP1;P2;durP2;ratioP2
20593;SDS011;10455;48.732;10.266;2024-03-23T00:53:41;13.97;;;12.77;;
20593;SDS011;10455;48.732;10.266;2024-03-23T00:58:43;11.20;;;10.27;;
20593;SDS011;10455;48.732;10.266;2024-03-23T01:03:45;9.80;;;9.00;;
20593;SDS011;10455;48.732;10.266;2024-03-23T01:08:48;8.93;;;8.13;;
20593;SDS011;10455;48.732;10.266;2024-03-23T01:13:50;9.17;;;8.37;;
20593;SDS011;10455;48.732;10.266;2024-03-23T01:18:52;8.77;;;7.93;;
20593;SDS011;10455;48.732;10.266;2024-03-23T01:23:55;9.20;;;8.30;;
20593;SDS011;10455;48.732;10.266;2024-03-23T01:28:57;7.50;;;6.87;;
20593;SDS011;10455;48.732;10.266;2024-03-23T01:33:59;10.63;;;6.90;;
20593;SDS011;10455;48.732;10.266;2024-03-23T01:39:03;8.37;;;7.40;;
20593;SDS011;10455;48.732;10.266;2024-03-23T01:44:09;6.67;;;6.07;;
20593;SDS011;10455;48.732;10.266;2024-03-23T01:49:11;6.63;;;6.07;;
20593;SDS011;10455;48.732;10.266;2024-03-23T01:54:16;7.13;;;5.80;;
20593;SDS011;10455;48.732;10.266;2024-03-23T01:59:18;6.37;;;5.73;;
20593;SDS011;10455;48.732;10.266;2024-03-23T02:04:21;6.30;;;5.80;;
20593;SDS011;10455;48.732;10.266;2024-03-23T02:09:24;6.57;;;5.97;;
20593;SDS011;10455;48.732;10.266;2024-03-23T02:14:26;6.70;;;6.10;;
20593;SDS011;10455;48.732;10.266;2024-03-23T02:19:28;6.67;;;6.00;;
20593;SDS011;10455;48.732;10.266;2024-03-23T02:24:31;6.87;;;5.70;;
20593;SDS011;10455;48.732;10.266;2024-03-23T02:29:34;6.30;;;5.30;;
20593;SDS011;10455;48.732;10.266;2024-03-23T02:34:36;6.10;;;5.50;;
20593;SDS011;10455;48.732;10.266;2024-03-23T02:39:39;6.93;;;5.40;;
20593;SDS011;10455;48.732;10.266;2024-03-23T02:44:41;6.93;;;5.50;;
20593;SDS011;10455;48.732;10.266;2024-03-23T02:49:43;6.60;;;5.33;;
20593;SDS011;10455;48.732;10.266;2024-03-23T02:54:46;5.80;;;5.30;;
20593;SDS011;10455;48.732;10.266;2024-03-23T02:59:48;6.03;;;5.47;;
20593;SDS011;10455;48.732;10.266;2024-03-23T03:04:50;6.10;;;5.50;;
20593;SDS011;10455;48.732;10.266;2024-03-23T03:09:53;5.53;;;5.13;;
20593;SDS011;10455;48.732;10.266;2024-03-23T03:14:55;6.47;;;5.23;;
20593;SDS011;10455;48.732;10.266;2024-03-23T03:19:57;6.00;;;4.93;;
20593;SDS011;10455;48.732;10.266;2024-03-23T03:25:01;5.33;;;4.93;;
20593;SDS011;10455;48.732;10.266;2024-03-23T03:30:03;7.47;;;5.13;;
20593;SDS011;10455;48.732;10.266;2024-03-23T03:35:08;5.37;;;4.87;;
20593;SDS011;10455;48.732;10.266;2024-03-23T03:40:12;5.80;;;5.07;;
20593;SDS011;10455;48.732;10.266;2024-03-23T03:45:15;5.77;;;5.20;;
20593;SDS011;10455;48.732;10.266;2024-03-23T03:50:17;5.40;;;4.90;;
20593;SDS011;10455;48.732;10.266;2024-03-23T03:55:20;5.50;;;5.00;;
20593;SDS011;10455;48.732;10.266;2024-03-23T04:00:22;6.07;;;5.37;;
20593;SDS011;10455;48.732;10.266;2024-03-23T04:05:24;5.50;;;5.10;;
20593;SDS011;10455;48.732;10.266;2024-03-23T04:10:27;6.13;;;5.63;;
20593;SDS011;10455;48.732;10.266;2024-03-23T04:15:29;5.67;;;5.27;;
20593;SDS011;10455;48.732;10.266;2024-03-23T04:20:31;5.57;;;5.17;;
20593;SDS011;10455;48.732;10.266;2024-03-23T04:25:35;6.67;;;5.80;;
20593;SDS011;10455;48.732;10.266;2024-03-23T04:30:36;6.30;;;5.67;;
20593;SDS011;10455;48.732;10.266;2024-03-23T04:35:38;6.60;;;5.70;;
20593;SDS011;10455;48.732;10.266;2024-03-23T04:40:42;5.93;;;5.43;;
20593;SDS011;10455;48.732;10.266;2024-03-23T04:45:44;6.37;;;5.80;;
20593;SDS011;10455;48.732;10.266;2024-03-23T04:50:47;6.70;;;6.10;;
20593;SDS011;10455;48.732;10.266;2024-03-23T04:55:50;6.27;;;5.77;;
20593;SDS011;10455;48.732;10.266;2024-03-23T05:00:53;8.73;;;6.67;;
20593;SDS011;10455;48.732;10.266;2024-03-23T05:05:56;6.87;;;6.20;;
20593;SDS011;10455;48.732;10.266;2024-03-23T05:10:59;7.03;;;6.40;;
20593;SDS011;10455;48.732;10.266;2024-03-23T05:16:02;6.63;;;6.03;;
20593;SDS011;10455;48.732;10.266;2024-03-23T05:21:05;8.17;;;7.40;;
20593;SDS011;10455;48.732;10.266;2024-03-23T05:26:08;7.50;;;6.90;;
20593;SDS011;10455;48.732;10.266;2024-03-23T05:31:10;7.60;;;6.83;;
20593;SDS011;10455;48.732;10.266;2024-03-23T05:36:12;7.87;;;7.17;;
20593;SDS011;10455;48.732;10.266;2024-03-23T05:41:16;7.33;;;6.63;;
20593;SDS011;10455;48.732;10.266;2024-03-23T05:46:18;7.90;;;7.17;;
20593;SDS011;10455;48.732;10.266;2024-03-23T05:51:20;7.23;;;6.50;;
20593;SDS011;10455;48.732;10.266;2024-03-23T05:56:23;7.47;;;6.73;;
20593;SDS011;10455;48.732;10.266;2024-03-23T06:01:26;6.47;;;5.97;;
20593;SDS011;10455;48.732;10.266;2024-03-23T06:06:28;10.00;;;9.10;;
20593;SDS011;10455;48.732;10.266;2024-03-23T06:11:32;11.83;;;10.90;;
20593;SDS011;10455;48.732;10.266;2024-03-23T06:16:34;16.70;;;14.30;;
20593;SDS011;10455;48.732;10.266;2024-03-23T06:21:36;20.20;;;18.40;;
20593;SDS011;10455;48.732;10.266;2024-03-23T06:26:40;21.07;;;19.30;;
20593;SDS011;10455;48.732;10.266;2024-03-23T06:31:42;31.87;;;28.83;;
20593;SDS011;10455;48.732;10.266;2024-03-23T06:36:43;41.23;;;36.77;;
20593;SDS011;10455;48.732;10.266;2024-03-23T06:41:53;32.47;;;29.07;;
20593;SDS011;10455;48.732;10.266;2024-03-23T06:46:55;27.23;;;24.43;;
20593;SDS011;10455;48.732;10.266;2024-03-23T06:51:57;21.10;;;18.87;;
20593;SDS011;10455;48.732;10.266;2024-03-23T06:57:00;19.07;;;16.57;;
20593;SDS011;10455;48.732;10.266;2024-03-23T07:02:03;16.23;;;13.90;;
20593;SDS011;10455;48.732;10.266;2024-03-23T07:07:05;15.63;;;14.03;;
20593;SDS011;10455;48.732;10.266;2024-03-23T07:12:08;13.93;;;12.50;;
20593;SDS011;10455;48.732;10.266;2024-03-23T07:17:10;14.77;;;13.37;;
20593;SDS011;10455;48.732;10.266;2024-03-23T07:22:12;13.07;;;11.87;;
20593;SDS011;10455;48.732;10.266;2024-03-23T07:27:15;11.53;;;10.43;;
20593;SDS011;10455;48.732;10.266;2024-03-23T07:32:17;9.33;;;8.53;;
20593;SDS011;10455;48.732;10.266;2024-03-23T07:37:19;8.13;;;7.43;;
20593;SDS011;10455;48.732;10.266;2024-03-23T07:42:23;8.30;;;7.50;;
20593;SDS011;10455;48.732;10.266;2024-03-23T07:47:26;7.77;;;7.07;;
20593;SDS011;10455;48.732;10.266;2024-03-23T07:52:28;6.47;;;5.93;;
20593;SDS011;10455;48.732;10.266;2024-03-23T07:57:32;5.90;;;5.40;;
20593;SDS011;10455;48.732;10.266;2024-03-23T08:02:34;5.03;;;4.63;;
20593;SDS011;10455;48.732;10.266;2024-03-23T08:07:36;3.80;;;3.50;;
20593;SDS011;10455;48.732;10.266;2024-03-23T08:12:39;3.80;;;3.43;;
20593;SDS011;10455;48.732;10.266;2024-03-23T08:17:41;3.00;;;2.80;;
20593;SDS011;10455;48.732;10.266;2024-03-23T08:22:42;2.80;;;2.60;;
20593;SDS011;10455;48.732;10.266;2024-03-23T08:27:46;2.70;;;2.50;;
20593;SDS011;10455;48.732;10.266;2024-03-23T08:32:48;2.40;;;2.30;;
20593;SDS011;10455;48.732;10.266;2024-03-23T08:37:50;2.50;;;2.30;;
20593;SDS011;10455;48.732;10.266;2024-03-23T08:42:53;2.40;;;2.20;;
20593;SDS011;10455;48.732;10.266;2024-03-23T08:47:55;2.27;;;2.17;;
20593;SDS011;10455;48.732;10.266;2024-03-23T08:52:57;2.53;;;2.43;;
20593;SDS011;10455;48.732;10.266;2024-03-23T08:58:00;3.00;;;2.80;;
20593;SDS011;10455;48.732;10.266;2024-03-23T09:03:02;2.93;;;2.73;;
20593;SDS011;10455;48.732;10.266;2024-03-23T09:08:05;3.13;;;2.93;;
20593;SDS011;10455;48.732;10.266;2024-03-23T09:13:09;4.47;;;4.13;;
20593;SDS011;10455;48.732;10.266;2024-03-23T09:18:12;21.33;;;17.33;;
20593;SDS011;10455;48.732;10.266;2024-03-23T09:23:13;10.40;;;9.30;;
20593;SDS011;10455;48.732;10.266;2024-03-23T09:28:17;5.77;;;5.37;;
20593;SDS011;10455;48.732;10.266;2024-03-23T09:33:19;2.10;;;1.90;;
20593;SDS011;10455;48.732;10.266;2024-03-23T09:38:21;1.70;;;1.60;;
20593;SDS011;10455;48.732;10.266;2024-03-23T09:43:24;2.17;;;2.07;;
20593;SDS011;10455;48.732;10.266;2024-03-23T09:48:26;2.27;;;2.07;;
20593;SDS011;10455;48.732;10.266;2024-03-23T09:53:28;2.67;;;2.13;;
20593;SDS011;10455;48.732;10.266;2024-03-23T09:58:33;2.77;;;2.57;;
20593;SDS011;10455;48.732;10.266;2024-03-23T10:03:41;5.40;;;5.00;;
20593;SDS011;10455;48.732;10.266;2024-03-23T10:08:44;10.10;;;5.00;;
20593;SDS011;10455;48.732;10.266;2024-03-23T10:13:47;2.70;;;2.50;;
20593;SDS011;10455;48.732;10.266;2024-03-23T10:18:49;3.40;;;3.10;;
20593;SDS011;10455;48.732;10.266;2024-03-23T10:23:51;3.80;;;3.50;;
20593;SDS011;10455;48.732;10.266;2024-03-23T10:28:56;6.67;;;5.67;;
20593;SDS011;10455;48.732;10.266;2024-03-23T10:34:00;6.23;;;4.47;;
20593;SDS011;10455;48.732;10.266;2024-03-23T10:39:04;7.00;;;5.33;;
20593;SDS011;10455;48.732;10.266;2024-03-23T10:44:09;6.20;;;5.23;;
20593;SDS011;10455;48.732;10.266;2024-03-23T10:49:12;6.47;;;5.47;;
20593;SDS011;10455;48.732;10.266;2024-03-23T10:54:14;5.78;;;4.30;;
20593;SDS011;10455;48.732;10.266;2024-03-23T10:59:17;4.50;;;4.10;;
20593;SDS011;10455;48.732;10.266;2024-03-23T11:04:29;5.30;;;3.75;;
20593;SDS011;10455;48.732;10.266;2024-03-23T11:09:38;4.95;;;4.05;;
20593;SDS011;10455;48.732;10.266;2024-03-23T11:14:42;5.18;;;4.20;;
20593;SDS011;10455;48.732;10.266;2024-03-23T11:19:44;6.38;;;4.20;;
20593;SDS011;10455;48.732;10.266;2024-03-23T11:24:53;5.47;;;4.70;;
20593;SDS011;10455;48.732;10.266;2024-03-23T11:30:10;5.60;;;4.55;;
20593;SDS011;10455;48.732;10.266;2024-03-23T11:35:26;6.72;;;4.68;;
20593;SDS011;10455;48.732;10.266;2024-03-23T11:40:29;6.85;;;4.32;;
20593;SDS011;10455;48.732;10.266;2024-03-23T11:45:35;6.43;;;4.22;;
20593;SDS011;10455;48.732;10.266;2024-03-23T11:50:39;7.80;;;4.30;;
20593;SDS011;10455;48.732;10.266;2024-03-23T11:55:46;11.43;;;4.72;;
20593;SDS011;10455;48.732;10.266;2024-03-23T12:00:50;4.90;;;3.72;;
20593;SDS011;10455;48.732;10.266;2024-03-23T12:05:53;6.80;;;5.60;;
20593;SDS011;10455;48.732;10.266;2024-03-23T12:11:04;8.67;;;6.70;;
20593;SDS011;10455;48.732;10.266;2024-03-23T12:16:12;8.60;;;7.43;;
20593;SDS011;10455;48.732;10.266;2024-03-23T12:21:14;10.00;;;7.53;;
20593;SDS011;10455;48.732;10.266;2024-03-23T12:26:20;8.27;;;6.93;;
20593;SDS011;10455;48.732;10.266;2024-03-23T12:31:24;7.70;;;6.00;;
20593;SDS011;10455;48.732;10.266;2024-03-23T12:36:26;5.93;;;4.53;;
20593;SDS011;10455;48.732;10.266;2024-03-23T12:41:28;4.67;;;4.03;;
20593;SDS011;10455;48.732;10.266;2024-03-23T12:46:32;5.43;;;3.90;;
20593;SDS011;10455;48.732;10.266;2024-03-23T12:51:34;87.60;;;9.87;;
20593;SDS011;10455;48.732;10.266;2024-03-23T12:56:36;4.88;;;3.05;;
20593;SDS011;10455;48.732;10.266;2024-03-23T13:01:39;5.13;;;3.20;;
20593;SDS011;10455;48.732;10.266;2024-03-23T13:06:41;6.47;;;3.08;;
20593;SDS011;10455;48.732;10.266;2024-03-23T13:11:43;5.82;;;2.97;;
20593;SDS011;10455;48.732;10.266;2024-03-23T13:16:46;5.15;;;3.20;;
20593;SDS011;10455;48.732;10.266;2024-03-23T13:21:48;7.43;;;3.60;;
20593;SDS011;10455;48.732;10.266;2024-03-23T13:26:50;4.78;;;3.30;;
20593;SDS011;10455;48.732;10.266;2024-03-23T13:31:54;4.32;;;3.65;;
20593;SDS011;10455;48.732;10.266;2024-03-23T13:36:56;7.37;;;4.40;;
20593;SDS011;10455;48.732;10.266;2024-03-23T13:41:59;6.47;;;3.77;;
20593;SDS011;10455;48.732;10.266;2024-03-23T13:47:02;6.10;;;3.58;;
20593;SDS011;10455;48.732;10.266;2024-03-23T13:52:05;5.18;;;3.80;;
20593;SDS011;10455;48.732;10.266;2024-03-23T13:57:07;3.90;;;3.15;;
20593;SDS011;10455;48.732;10.266;2024-03-23T14:02:12;3.95;;;3.20;;
20593;SDS011;10455;48.732;10.266;2024-03-23T14:07:14;6.35;;;2.70;;
20593;SDS011;10455;48.732;10.266;2024-03-23T14:12:18;4.10;;;3.25;;
20593;SDS011;10455;48.732;10.266;2024-03-23T14:17:23;7.63;;;3.90;;
20593;SDS011;10455;48.732;10.266;2024-03-23T14:22:26;6.65;;;3.75;;
20593;SDS011;10455;48.732;10.266;2024-03-23T14:27:28;5.07;;;3.85;;
20593;SDS011;10455;48.732;10.266;2024-03-23T14:32:31;6.45;;;3.13;;
20593;SDS011;10455;48.732;10.266;2024-03-23T14:37:34;4.68;;;3.08;;
20593;SDS011;10455;48.732;10.266;2024-03-23T14:42:37;5.25;;;3.30;;
20593;SDS011;10455;48.732;10.266;2024-03-23T14:47:40;8.48;;;4.90;;
20593;SDS011;10455;48.732;10.266;2024-03-23T14:52:44;5.65;;;3.83;;
20593;SDS011;10455;48.732;10.266;2024-03-23T14:57:47;4.10;;;3.38;;
20593;SDS011;10455;48.732;10.266;2024-03-23T15:02:52;4.75;;;3.42;;
20593;SDS011;10455;48.732;10.266;2024-03-23T15:07:54;3.65;;;2.75;;
20593;SDS011;10455;48.732;10.266;2024-03-23T15:12:56;7.40;;;3.43;;
20593;SDS011;10455;48.732;10.266;2024-03-23T15:17:59;4.70;;;3.20;;
20593;SDS011;10455;48.732;10.266;2024-03-23T15:23:01;3.90;;;3.50;;
20593;SDS011;10455;48.732;10.266;2024-03-23T15:28:03;6.20;;;4.00;;
20593;SDS011;10455;48.732;10.266;2024-03-23T15:33:07;5.10;;;3.50;;
20593;SDS011;10455;48.732;10.266;2024-03-23T15:38:09;3.60;;;3.30;;
20593;SDS011;10455;48.732;10.266;2024-03-23T15:43:11;3.73;;;3.17;;
20593;SDS011;10455;48.732;10.266;2024-03-23T15:48:14;3.43;;;3.13;;
20593;SDS011;10455;48.732;10.266;2024-03-23T15:53:16;3.50;;;3.20;;
20593;SDS011;10455;48.732;10.266;2024-03-23T15:58:18;5.23;;;3.10;;
20593;SDS011;10455;48.732;10.266;2024-03-23T16:03:22;3.83;;;3.00;;
20593;SDS011;10455;48.732;10.266;2024-03-23T16:08:24;5.47;;;3.60;;
20593;SDS011;10455;48.732;10.266;2024-03-23T16:13:27;4.50;;;3.20;;
20593;SDS011;10455;48.732;10.266;2024-03-23T16:18:30;3.00;;;2.70;;
20593;SDS011;10455;48.732;10.266;2024-03-23T16:23:32;3.20;;;2.90;;
20593;SDS011;10455;48.732;10.266;2024-03-23T16:28:35;4.73;;;2.97;;
20593;SDS011;10455;48.732;10.266;2024-03-23T16:33:39;4.77;;;3.20;;
20593;SDS011;10455;48.732;10.266;2024-03-23T16:38:41;3.37;;;3.07;;
20593;SDS011;10455;48.732;10.266;2024-03-23T16:43:43;3.37;;;2.90;;
20593;SDS011;10455;48.732;10.266;2024-03-23T16:48:47;3.40;;;2.90;;
20593;SDS011;10455;48.732;10.266;2024-03-23T16:53:49;4.27;;;3.20;;
20593;SDS011;10455;48.732;10.266;2024-03-23T16:58:51;3.80;;;2.93;;
20593;SDS011;10455;48.732;10.266;2024-03-23T17:03:54;3.23;;;3.03;;
20593;SDS011;10455;48.732;10.266;2024-03-23T17:08:56;4.63;;;3.20;;
20593;SDS011;10455;48.732;10.266;2024-03-23T17:13:59;3.53;;;3.23;;
20593;SDS011;10455;48.732;10.266;2024-03-23T17:19:02;4.00;;;3.60;;
20593;SDS011;10455;48.732;10.266;2024-03-23T17:24:04;4.90;;;4.00;;
20593;SDS011;10455;48.732;10.266;2024-03-23T17:29:09;6.17;;;5.57;;
20593;SDS011;10455;48.732;10.266;2024-03-23T17:34:12;6.07;;;4.70;;
20593;SDS011;10455;48.732;10.266;2024-03-23T17:39:14;3.67;;;3.37;;
20593;SDS011;10455;48.732;10.266;2024-03-23T17:44:15;4.93;;;3.70;;
20593;SDS011;10455;48.732;10.266;2024-03-23T17:49:19;3.40;;;3.10;;
20593;SDS011;10455;48.732;10.266;2024-03-23T17:54:21;4.07;;;3.67;;
20593;SDS011;10455;48.732;10.266;2024-03-23T17:59:22;5.10;;;3.43;;
20593;SDS011;10455;48.732;10.266;2024-03-23T18:04:26;5.97;;;3.50;;
20593;SDS011;10455;48.732;10.266;2024-03-23T18:09:28;5.63;;;3.63;;
20593;SDS011;10455;48.732;10.266;2024-03-23T18:14:30;5.00;;;3.70;;
20593;SDS011;10455;48.732;10.266;2024-03-23T18:19:33;3.80;;;3.47;;
20593;SDS011;10455;48.732;10.266;2024-03-23T18:24:35;3.93;;;3.40;;
20593;SDS011;10455;48.732;10.266;2024-03-23T18:29:37;5.57;;;3.40;;
20593;SDS011;10455;48.732;10.266;2024-03-23T18:34:40;3.73;;;3.40;;
20593;SDS011;10455;48.732;10.266;2024-03-23T18:39:42;5.07;;;3.37;;
20593;SDS011;10455;48.732;10.266;2024-03-23T18:44:44;4.57;;;3.57;;
20593;SDS011;10455;48.732;10.266;2024-03-23T18:49:47;3.60;;;3.30;;
20593;SDS011;10455;48.732;10.266;2024-03-23T18:54:49;3.83;;;3.43;;
20593;SDS011;10455;48.732;10.266;2024-03-23T18:59:51;5.07;;;3.80;;
20593;SDS011;10455;48.732;10.266;2024-03-23T19:04:55;5.27;;;4.60;;
20593;SDS011;10455;48.732;10.266;2024-03-23T19:09:58;4.47;;;3.97;;
20593;SDS011;10455;48.732;10.266;2024-03-23T19:15:00;3.10;;;2.87;;
20593;SDS011;10455;48.732;10.266;2024-03-23T19:20:06;3.63;;;3.37;;
20593;SDS011;10455;48.732;10.266;2024-03-23T19:25:09;3.07;;;2.87;;
20593;SDS011;10455;48.732;10.266;2024-03-23T19:30:11;3.87;;;3.13;;
20593;SDS011;10455;48.732;10.266;2024-03-23T19:35:14;3.00;;;2.80;;
20593;SDS011;10455;48.732;10.266;2024-03-23T19:40:17;6.90;;;6.20;;
20593;SDS011;10455;48.732;10.266;2024-03-23T19:45:19;10.30;;;7.20;;
20593;SDS011;10455;48.732;10.266;2024-03-23T19:50:22;8.30;;;6.10;;
20593;SDS011;10455;48.732;10.266;2024-03-23T19:55:24;5.47;;;3.93;;
20593;SDS011;10455;48.732;10.266;2024-03-23T20:00:26;4.50;;;4.10;;
20593;SDS011;10455;48.732;10.266;2024-03-23T20:05:29;4.40;;;4.10;;
20593;SDS011;10455;48.732;10.266;2024-03-23T20:10:31;4.70;;;4.30;;
20593;SDS011;10455;48.732;10.266;2024-03-23T20:15:33;3.40;;;3.10;;
20593;SDS011;10455;48.732;10.266;2024-03-23T20:20:37;5.00;;;3.60;;
20593;SDS011;10455;48.732;10.266;2024-03-23T20:25:39;5.77;;;3.70;;
20593;SDS011;10455;48.732;10.266;2024-03-23T20:30:41;5.27;;;4.10;;
20593;SDS011;10455;48.732;10.266;2024-03-23T20:35:47;6.53;;;4.20;;
20593;SDS011;10455;48.732;10.266;2024-03-23T20:40:51;4.73;;;4.23;;
20593;SDS011;10455;48.732;10.266;2024-03-23T20:45:56;5.53;;;4.90;;
20593;SDS011;10455;48.732;10.266;2024-03-23T20:51:01;6.07;;;5.30;;
20593;SDS011;10455;48.732;10.266;2024-03-23T20:56:05;6.37;;;5.77;;
20593;SDS011;10455;48.732;10.266;2024-03-23T21:01:08;9.00;;;6.13;;
20593;SDS011;10455;48.732;10.266;2024-03-23T21:06:13;10.73;;;8.93;;
20593;SDS011;10455;48.732;10.266;2024-03-23T21:11:17;8.03;;;7.33;;
20593;SDS011;10455;48.732;10.266;2024-03-23T21:16:19;7.70;;;6.67;;
20593;SDS011;10455;48.732;10.266;2024-03-23T21:21:23;6.77;;;6.10;;
20593;SDS011;10455;48.732;10.266;2024-03-23T21:26:27;7.60;;;6.40;;
20593;SDS011;10455;48.732;10.266;2024-03-23T21:31:31;9.07;;;6.20;;
20593;SDS011;10455;48.732;10.266;2024-03-23T21:36:35;7.03;;;5.83;;
20593;SDS011;10455;48.732;10.266;2024-03-23T21:41:37;6.50;;;5.80;;
20593;SDS011;10455;48.732;10.266;2024-03-23T21:46:39;7.57;;;5.93;;
20593;SDS011;10455;48.732;10.266;2024-03-23T21:51:42;7.30;;;5.67;;
20593;SDS011;10455;48.732;10.266;2024-03-23T21:56:44;6.90;;;5.60;;
20593;SDS011;10455;48.732;10.266;2024-03-23T22:01:46;5.93;;;4.67;;
20593;SDS011;10455;48.732;10.266;2024-03-23T22:06:49;6.63;;;4.80;;
20593;SDS011;10455;48.732;10.266;2024-03-23T22:11:51;8.13;;;4.53;;
20593;SDS011;10455;48.732;10.266;2024-03-23T22:16:53;7.33;;;5.27;;
20593;SDS011;10455;48.732;10.266;2024-03-23T22:21:56;5.23;;;4.73;;
20593;SDS011;10455;48.732;10.266;2024-03-23T22:26:58;5.67;;;4.90;;
20593;SDS011;10455;48.732;10.266;2024-03-23T22:32:00;5.70;;;4.73;;
20593;SDS011;10455;48.732;10.266;2024-03-23T22:37:04;6.60;;;4.73;;
20593;SDS011;10455;48.732;10.266;2024-03-23T22:42:06;8.50;;;4.77;;
20593;SDS011;10455;48.732;10.266;2024-03-23T22:47:08;6.97;;;4.90;;
20593;SDS011;10455;48.732;10.266;2024-03-23T22:52:11;7.77;;;5.53;;
20593;SDS011;10455;48.732;10.266;2024-03-23T22:57:14;8.20;;;4.70;;
20593;SDS011;10455;48.732;10.266;2024-03-23T23:02:15;6.63;;;5.23;;
20593;SDS011;10455;48.732;10.266;2024-03-23T23:07:19;4.77;;;4.37;;
20593;SDS011;10455;48.732;10.266;2024-03-23T23:12:21;6.70;;;4.67;;
20593;SDS011;10455;48.732;10.266;2024-03-23T23:17:23;7.80;;;4.80;;
20593;SDS011;10455;48.732;10.266;2024-03-23T23:22:26;6.67;;;4.50;;
20593;SDS011;10455;48.732;10.266;2024-03-23T23:27:28;6.97;;;4.80;;
20593;SDS011;10455;48.732;10.266;2024-03-23T23:32:30;9.90;;;5.00;;
20593;SDS011;10455;48.732;10.266;2024-03-23T23:37:33;8.93;;;4.63;;
20593;SDS011;10455;48.732;10.266;2024-03-23T23:42:35;5.80;;;4.03;;
20593;SDS011;10455;48.732;10.266;2024-03-23T23:47:37;7.93;;;5.10;;
20593;SDS011;10455;48.732;10.266;2024-03-23T23:52:41;8.30;;;5.40;;
20593;SDS011;10455;48.732;10.266;2024-03-23T23:57:43;13.03;;;5.43;;
